createdAt,value
2018-12-10T00:01:05.892Z,2.10
2018-12-10T00:03:34.614Z,2.05
2018-12-10T00:06:02.016Z,2.58
2018-12-10T00:08:29.295Z,2.10
2018-12-10T00:10:56.660Z,2.10
2018-12-10T00:13:23.987Z,2.12
2018-12-10T00:15:51.244Z,2.20
2018-12-10T00:18:18.615Z,2.40
2018-12-10T00:20:45.928Z,2.52
2018-12-10T00:23:13.335Z,2.70
2018-12-10T00:25:40.665Z,2.42
2018-12-10T00:28:08.142Z,2.47
2018-12-10T00:30:35.467Z,1.90
2018-12-10T00:33:02.805Z,2.27
2018-12-10T00:35:30.122Z,2.17
2018-12-10T00:37:57.469Z,2.02
2018-12-10T00:40:24.839Z,2.20
2018-12-10T00:42:52.051Z,2.45
2018-12-10T00:45:19.411Z,2.08
2018-12-10T00:47:46.847Z,2.02
2018-12-10T00:50:14.173Z,2.55
2018-12-10T00:52:41.543Z,2.02
2018-12-10T00:55:08.871Z,2.00
2018-12-10T00:57:36.100Z,3.25
2018-12-10T01:00:03.894Z,2.40
2018-12-10T01:02:31.228Z,1.95
2018-12-10T01:04:58.548Z,2.00
2018-12-10T01:07:25.895Z,2.15
2018-12-10T01:09:53.379Z,1.90
2018-12-10T01:12:20.626Z,1.67
2018-12-10T01:14:47.884Z,1.77
2018-12-10T01:17:15.215Z,2.35
2018-12-10T01:19:42.571Z,1.85
2018-12-10T01:22:09.913Z,1.75
2018-12-10T01:24:37.257Z,1.62
2018-12-10T01:27:04.580Z,1.80
2018-12-10T01:29:32.039Z,1.80
2018-12-10T01:31:59.248Z,1.85
2018-12-10T01:34:26.591Z,2.00
2018-12-10T01:36:54.059Z,2.08
2018-12-10T01:39:21.271Z,1.25
2018-12-10T01:41:48.721Z,1.42
2018-12-10T01:44:16.064Z,1.95
2018-12-10T01:46:43.578Z,1.95
2018-12-10T01:49:10.939Z,1.70
2018-12-10T01:51:38.322Z,1.60
2018-12-10T01:54:05.659Z,1.95
2018-12-10T01:56:32.911Z,1.57
2018-12-10T01:59:00.273Z,2.40
2018-12-10T02:01:27.607Z,1.90
2018-12-10T02:03:54.951Z,2.15
2018-12-10T02:06:22.668Z,1.90
2018-12-10T02:08:50.031Z,1.90
2018-12-10T02:11:17.343Z,1.72
2018-12-10T02:13:44.703Z,2.00
2018-12-10T02:16:11.921Z,1.90
2018-12-10T02:18:39.263Z,1.80
2018-12-10T02:21:06.669Z,1.50
2018-12-10T02:23:34.014Z,1.70
2018-12-10T02:26:01.371Z,1.65
2018-12-10T02:28:34.198Z,1.85
2018-12-10T02:31:01.532Z,1.65
2018-12-10T02:33:28.856Z,1.67
2018-12-10T02:35:56.171Z,1.67
2018-12-10T02:38:23.536Z,1.90
2018-12-10T02:40:50.842Z,1.87
2018-12-10T02:43:18.214Z,2.30
2018-12-10T02:45:45.572Z,2.40
2018-12-10T02:48:12.930Z,2.15
2018-12-10T02:50:40.240Z,2.02
2018-12-10T02:53:07.589Z,2.02
2018-12-10T02:55:34.822Z,1.90
2018-12-10T02:58:02.160Z,2.65
2018-12-10T03:00:29.514Z,2.75
2018-12-10T03:02:56.842Z,1.90
2018-12-10T03:05:24.194Z,1.67
2018-12-10T03:07:51.436Z,1.90
2018-12-10T03:10:19.191Z,2.15
2018-12-10T03:12:46.495Z,2.00
2018-12-10T03:15:13.832Z,2.37
2018-12-10T03:17:41.093Z,2.35
2018-12-10T03:20:08.419Z,2.22
2018-12-10T03:22:35.688Z,1.90
2018-12-10T03:25:03.185Z,2.17
2018-12-10T03:27:30.518Z,2.15
2018-12-10T03:29:57.844Z,2.30
2018-12-10T03:32:25.318Z,2.52
2018-12-10T03:34:52.783Z,1.80
2018-12-10T03:37:20.108Z,2.22
2018-12-10T03:39:47.449Z,2.70
2018-12-10T03:42:14.781Z,2.25
2018-12-10T03:44:42.120Z,2.30
2018-12-10T03:47:09.428Z,2.27
2018-12-10T03:49:36.756Z,2.30
2018-12-10T03:52:04.079Z,2.30
2018-12-10T03:54:31.412Z,2.40
2018-12-10T03:56:58.755Z,2.25
2018-12-10T03:59:26.070Z,2.12
2018-12-10T04:01:53.419Z,2.72
2018-12-10T04:04:20.756Z,1.95
2018-12-10T04:06:48.088Z,2.27
2018-12-10T04:09:15.431Z,3.35
2018-12-10T04:11:42.779Z,1.95
2018-12-10T04:14:10.082Z,1.95
2018-12-10T04:16:37.351Z,2.70
2018-12-10T04:19:04.706Z,2.10
2018-12-10T04:21:32.041Z,1.67
2018-12-10T04:23:59.371Z,1.95
2018-12-10T04:26:26.689Z,1.55
2018-12-10T04:28:54.055Z,1.42
2018-12-10T04:31:21.381Z,1.20
2018-12-10T04:33:48.715Z,2.05
2018-12-10T04:36:15.968Z,1.60
2018-12-10T04:38:43.339Z,1.87
2018-12-10T04:41:10.723Z,1.82
2018-12-10T04:43:38.097Z,1.50
2018-12-10T04:46:05.426Z,1.70
2018-12-10T04:48:32.748Z,1.25
2018-12-10T04:51:00.099Z,1.50
2018-12-10T04:53:27.409Z,1.50
2018-12-10T04:55:54.789Z,1.65
2018-12-10T04:58:22.107Z,1.20
2018-12-10T05:00:49.559Z,1.87
2018-12-10T05:03:20.644Z,1.42
2018-12-10T05:05:47.998Z,1.20
2018-12-10T05:08:15.351Z,1.87
2018-12-10T05:10:42.695Z,2.02
2018-12-10T05:13:10.086Z,1.30
2018-12-10T05:15:37.416Z,1.55
2018-12-10T05:18:04.880Z,1.65
2018-12-10T05:20:32.221Z,1.30
2018-12-10T05:22:59.573Z,1.70
2018-12-10T05:25:26.891Z,1.20
2018-12-10T05:27:54.205Z,1.50
2018-12-10T05:30:21.681Z,1.77
2018-12-10T05:32:48.993Z,1.40
2018-12-10T05:35:16.341Z,1.27
2018-12-10T05:37:43.669Z,0.90
2018-12-10T05:40:11.031Z,0.85
2018-12-10T05:42:38.293Z,0.80
2018-12-10T05:45:07.025Z,1.10
2018-12-10T05:47:34.338Z,0.88
2018-12-10T05:50:01.671Z,0.95
2018-12-10T05:52:29.007Z,0.78
2018-12-10T05:54:56.315Z,0.88
2018-12-10T05:57:23.671Z,1.00
2018-12-10T05:59:50.977Z,0.70
2018-12-10T06:02:18.331Z,0.80
2018-12-10T06:04:45.646Z,0.70
2018-12-10T06:07:13.011Z,0.80
2018-12-10T06:09:40.276Z,0.72
2018-12-10T06:12:07.909Z,1.10
2018-12-10T06:14:35.118Z,0.82
2018-12-10T06:17:02.522Z,1.00
2018-12-10T06:19:29.976Z,1.10
2018-12-10T06:21:57.317Z,1.07
2018-12-10T06:24:24.656Z,0.82
2018-12-10T06:26:52.192Z,0.80
2018-12-10T06:29:19.484Z,1.10
2018-12-10T06:31:46.822Z,0.80
2018-12-10T06:34:17.020Z,1.35
2018-12-10T06:36:44.392Z,0.90
2018-12-10T06:39:11.713Z,0.90
2018-12-10T06:41:39.123Z,0.70
2018-12-10T06:44:06.448Z,0.72
2018-12-10T06:46:33.786Z,0.85
2018-12-10T06:49:01.111Z,1.27
2018-12-10T06:51:28.479Z,1.27
2018-12-10T06:53:55.812Z,1.57
2018-12-10T06:56:23.273Z,1.50
2018-12-10T06:58:50.839Z,1.00
2018-12-10T07:01:18.465Z,1.40
2018-12-10T07:03:50.458Z,1.37
2018-12-10T07:06:17.811Z,2.58
2018-12-10T07:08:45.085Z,1.32
2018-12-10T07:11:12.447Z,1.60
2018-12-10T07:13:39.991Z,0.98
2018-12-10T07:16:07.364Z,1.55
2018-12-10T07:18:34.751Z,1.30
2018-12-10T07:21:02.115Z,1.75
2018-12-10T07:23:29.454Z,2.30
2018-12-10T07:25:56.779Z,1.80
2018-12-10T07:28:24.123Z,2.08
2018-12-10T07:30:51.455Z,1.80
2018-12-10T07:33:18.839Z,2.20
2018-12-10T07:35:46.176Z,2.00
2018-12-10T07:38:13.533Z,1.55
2018-12-10T07:40:40.907Z,2.20
2018-12-10T07:43:08.255Z,2.30
2018-12-10T07:45:35.601Z,2.10
2018-12-10T07:48:03.308Z,2.12
2018-12-10T07:50:31.352Z,2.05
2018-12-10T07:52:58.856Z,1.90
2018-12-10T07:55:32.464Z,1.85
2018-12-10T07:58:00.020Z,1.87
2018-12-10T08:00:27.357Z,2.27
2018-12-10T08:02:54.706Z,2.55
2018-12-10T08:05:22.050Z,2.60
2018-12-10T08:07:49.276Z,2.55
2018-12-10T08:10:16.669Z,2.47
2018-12-10T08:12:44.044Z,2.22
2018-12-10T08:15:11.498Z,2.10
2018-12-10T08:17:38.753Z,2.33
2018-12-10T08:20:06.179Z,1.82
2018-12-10T08:22:33.568Z,2.02
2018-12-10T08:25:00.901Z,2.17
2018-12-10T08:27:28.328Z,1.87
2018-12-10T08:29:55.751Z,2.15
2018-12-10T08:32:23.033Z,2.40
2018-12-10T08:34:50.396Z,2.15
2018-12-10T08:37:17.710Z,1.98
2018-12-10T08:39:44.989Z,1.85
2018-12-10T08:42:12.347Z,1.90
2018-12-10T08:44:39.665Z,1.77
2018-12-10T08:47:07.345Z,1.70
2018-12-10T08:49:34.987Z,1.90
2018-12-10T08:52:02.228Z,1.82
2018-12-10T08:54:29.587Z,2.00
2018-12-10T08:56:56.993Z,1.90
2018-12-10T08:59:24.404Z,2.40
2018-12-10T09:01:51.752Z,2.00
2018-12-10T09:04:19.122Z,2.30
2018-12-10T09:06:46.471Z,2.87
2018-12-10T09:09:13.710Z,2.20
2018-12-10T09:11:41.092Z,2.92
2018-12-10T09:14:08.462Z,3.00
2018-12-10T09:16:35.832Z,2.70
2018-12-10T09:19:03.331Z,2.65
2018-12-10T09:21:30.690Z,2.55
2018-12-10T09:23:58.063Z,2.27
2018-12-10T09:26:25.427Z,2.45
2018-12-10T09:28:52.781Z,2.02
2018-12-10T09:31:20.134Z,2.37
2018-12-10T09:33:47.396Z,2.00
2018-12-10T09:36:14.756Z,1.80
2018-12-10T09:38:42.068Z,2.05
2018-12-10T09:41:09.429Z,1.90
2018-12-10T09:43:36.785Z,2.00
2018-12-10T09:46:04.073Z,2.75
2018-12-10T09:48:31.428Z,2.05
2018-12-10T09:50:58.762Z,2.25
2018-12-10T09:53:26.043Z,2.60
2018-12-10T09:55:54.226Z,2.65
2018-12-10T09:58:21.597Z,2.55
2018-12-10T10:00:49.173Z,1.95
2018-12-10T10:03:16.502Z,3.00
2018-12-10T10:05:43.846Z,2.25
2018-12-10T10:08:11.179Z,3.17
2018-12-10T10:10:42.744Z,2.62
2018-12-10T10:13:12.621Z,2.58
2018-12-10T10:15:40.072Z,2.70
2018-12-10T10:18:07.452Z,2.62
2018-12-10T10:20:34.720Z,2.67
2018-12-10T10:23:02.156Z,4.30
2018-12-10T10:25:29.541Z,3.83
2018-12-10T10:27:56.932Z,3.58
2018-12-10T10:30:24.284Z,3.10
2018-12-10T10:32:51.534Z,4.53
2018-12-10T10:35:18.906Z,6.87
2018-12-10T10:37:46.243Z,4.40
2018-12-10T10:40:13.619Z,2.90
2018-12-10T10:42:40.950Z,4.42
2018-12-10T10:45:08.541Z,5.50
2018-12-10T10:47:35.843Z,3.62
2018-12-10T10:50:03.460Z,3.85
2018-12-10T10:52:33.383Z,3.77
2018-12-10T10:55:00.342Z,3.85
2018-12-10T10:57:27.707Z,3.60
2018-12-10T10:59:55.079Z,4.03
2018-12-10T11:02:28.211Z,3.08
2018-12-10T11:04:55.558Z,4.05
2018-12-10T11:07:22.811Z,3.60
2018-12-10T11:09:50.209Z,4.00
2018-12-10T11:12:17.544Z,3.90
2018-12-10T11:14:44.967Z,4.83
2018-12-10T11:17:12.323Z,3.40
2018-12-10T11:19:39.697Z,3.00
2018-12-10T11:22:07.193Z,3.00
2018-12-10T11:24:34.561Z,3.22
2018-12-10T11:27:01.913Z,2.35
2018-12-10T11:29:29.496Z,3.33
2018-12-10T11:31:56.935Z,3.30
2018-12-10T11:34:24.333Z,3.55
2018-12-10T11:36:51.684Z,8.35
2018-12-10T11:39:18.921Z,3.83
2018-12-10T11:41:46.698Z,3.95
2018-12-10T11:44:14.214Z,5.30
2018-12-10T11:46:41.502Z,4.80
2018-12-10T11:49:09.694Z,3.92
2018-12-10T11:51:37.138Z,3.75
2018-12-10T11:54:04.626Z,3.40
2018-12-10T11:56:32.211Z,3.70
2018-12-10T11:59:01.575Z,4.10
2018-12-10T12:01:29.143Z,3.55
2018-12-10T12:03:56.520Z,3.10
2018-12-10T12:06:23.864Z,3.50
2018-12-10T12:08:51.327Z,3.40
2018-12-10T12:11:18.858Z,3.72
2018-12-10T12:13:46.192Z,2.75
2018-12-10T12:16:13.845Z,2.95
2018-12-10T12:18:41.792Z,2.80
2018-12-10T12:21:09.209Z,3.25
2018-12-10T12:23:36.452Z,3.08
2018-12-10T12:26:03.814Z,3.37
2018-12-10T12:28:31.144Z,4.33
2018-12-10T12:30:58.497Z,3.37
2018-12-10T12:33:25.865Z,3.60
2018-12-10T12:35:53.210Z,4.00
2018-12-10T12:38:20.591Z,3.50
2018-12-10T12:40:48.108Z,3.05
2018-12-10T12:43:16.114Z,4.20
2018-12-10T12:45:43.797Z,5.00
2018-12-10T12:48:11.170Z,4.20
2018-12-10T12:50:38.643Z,3.05
2018-12-10T12:53:05.984Z,3.25
2018-12-10T12:55:33.356Z,2.70
2018-12-10T12:58:00.702Z,2.98
2018-12-10T13:00:28.074Z,3.87
2018-12-10T13:02:55.417Z,3.00
2018-12-10T13:05:22.945Z,3.77
2018-12-10T13:07:50.216Z,2.92
2018-12-10T13:10:17.623Z,3.83
2018-12-10T13:12:45.413Z,2.75
2018-12-10T13:15:12.651Z,2.83
2018-12-10T13:17:39.945Z,3.05
2018-12-10T13:20:07.315Z,3.70
2018-12-10T13:22:34.679Z,3.72
2018-12-10T13:25:02.057Z,6.55
2018-12-10T13:27:29.311Z,5.95
2018-12-10T13:29:56.689Z,7.25
2018-12-10T13:32:24.033Z,3.50
2018-12-10T13:34:51.385Z,3.72
2018-12-10T13:37:18.631Z,3.17
2018-12-10T13:39:46.016Z,3.65
2018-12-10T13:42:13.395Z,4.00
2018-12-10T13:44:40.731Z,5.10
2018-12-10T13:47:08.093Z,4.58
2018-12-10T13:49:35.487Z,4.08
2018-12-10T13:52:02.859Z,3.50
2018-12-10T13:54:30.223Z,8.20
2018-12-10T13:56:57.565Z,3.70
2018-12-10T13:59:24.970Z,3.75
2018-12-10T14:01:52.365Z,3.30
2018-12-10T14:04:24.581Z,4.20
2018-12-10T14:06:52.041Z,3.45
2018-12-10T14:09:19.386Z,3.62
2018-12-10T14:11:47.347Z,3.62
2018-12-10T14:14:14.844Z,4.22
2018-12-10T14:16:42.163Z,4.00
2018-12-10T14:19:09.540Z,3.65
2018-12-10T14:21:36.924Z,4.08
2018-12-10T14:24:04.280Z,4.15
2018-12-10T14:26:31.690Z,3.25
2018-12-10T14:28:59.038Z,4.17
2018-12-10T14:31:27.447Z,5.35
2018-12-10T14:33:57.022Z,4.97
2018-12-10T14:36:24.402Z,4.10
2018-12-10T14:38:51.772Z,3.98
2018-12-10T14:41:19.204Z,4.80
2018-12-10T14:43:46.654Z,4.87
2018-12-10T14:46:15.506Z,4.05
2018-12-10T14:48:43.420Z,5.40
2018-12-10T14:51:10.825Z,5.72
2018-12-10T14:53:38.191Z,5.17
2018-12-10T14:56:07.484Z,4.87
2018-12-10T14:58:36.055Z,4.95
2018-12-10T15:01:04.270Z,5.95
2018-12-10T15:03:33.344Z,4.72
2018-12-10T15:06:01.620Z,4.40
2018-12-10T15:08:31.316Z,5.10
2018-12-10T15:10:59.816Z,5.85
2018-12-10T15:13:27.127Z,5.20
2018-12-10T15:15:54.540Z,5.95
2018-12-10T15:18:21.906Z,5.45
2018-12-10T15:20:49.275Z,5.30
2018-12-10T15:23:16.673Z,5.15
2018-12-10T15:25:44.069Z,5.45
2018-12-10T15:28:13.102Z,5.58
2018-12-10T15:30:40.460Z,5.28
2018-12-10T15:33:07.949Z,5.97
2018-12-10T15:35:35.402Z,5.17
2018-12-10T15:38:02.883Z,5.95
2018-12-10T15:40:30.312Z,5.25
2018-12-10T15:42:57.677Z,5.75
2018-12-10T15:45:25.079Z,6.30
2018-12-10T15:47:52.390Z,6.00
2018-12-10T15:50:19.762Z,5.00
2018-12-10T15:52:47.169Z,4.03
2018-12-10T15:55:14.888Z,4.80
2018-12-10T15:57:42.294Z,6.15
2018-12-10T16:00:10.293Z,6.00
2018-12-10T16:02:37.572Z,4.62
2018-12-10T16:05:05.257Z,4.85
2018-12-10T16:07:32.651Z,5.60
2018-12-10T16:10:00.040Z,4.87
2018-12-10T16:12:27.335Z,5.17
2018-12-10T16:14:54.690Z,6.20
2018-12-10T16:17:22.108Z,5.50
2018-12-10T16:19:49.467Z,5.62
2018-12-10T16:22:17.232Z,5.70
2018-12-10T16:24:44.634Z,5.50
2018-12-10T16:27:13.692Z,6.08
2018-12-10T16:29:41.476Z,6.10
2018-12-10T16:32:10.200Z,6.00
2018-12-10T16:34:44.134Z,4.85
2018-12-10T16:37:14.231Z,5.75
2018-12-10T16:39:43.869Z,6.30
2018-12-10T16:42:15.278Z,6.50
2018-12-10T16:44:47.809Z,6.83
2018-12-10T16:47:16.295Z,7.10
2018-12-10T16:49:43.678Z,6.30
2018-12-10T16:52:11.088Z,6.22
2018-12-10T16:54:38.508Z,6.10
2018-12-10T16:57:05.943Z,7.33
2018-12-10T16:59:33.296Z,6.87
2018-12-10T17:02:00.713Z,7.58
2018-12-10T17:04:28.140Z,7.22
2018-12-10T17:06:55.609Z,7.75
2018-12-10T17:09:23.380Z,7.22
2018-12-10T17:11:50.782Z,7.22
2018-12-10T17:14:18.418Z,7.20
2018-12-10T17:16:45.880Z,8.78
2018-12-10T17:19:13.187Z,6.55
2018-12-10T17:21:40.728Z,5.50
2018-12-10T17:24:08.064Z,7.40
2018-12-10T17:26:35.445Z,6.90
2018-12-10T17:29:02.876Z,7.45
2018-12-10T17:31:30.351Z,7.30
2018-12-10T17:33:57.713Z,6.80
2018-12-10T17:36:25.142Z,6.60
2018-12-10T17:38:52.563Z,7.53
2018-12-10T17:41:19.997Z,9.75
2018-12-10T17:43:47.500Z,7.85
2018-12-10T17:46:14.970Z,8.33
2018-12-10T17:48:42.990Z,8.23
2018-12-10T17:51:11.002Z,7.78
2018-12-10T17:53:38.542Z,8.20
2018-12-10T17:56:06.122Z,7.87
2018-12-10T17:58:33.527Z,8.50
2018-12-10T18:01:01.087Z,7.22
2018-12-10T18:03:28.526Z,7.00
2018-12-10T18:05:56.017Z,6.30
2018-12-10T18:08:23.435Z,7.08
2018-12-10T18:10:50.940Z,6.78
2018-12-10T18:13:18.427Z,6.75
2018-12-10T18:15:45.821Z,7.58
2018-12-10T18:18:14.157Z,7.85
2018-12-10T18:20:41.657Z,6.78
2018-12-10T18:23:09.189Z,7.80
2018-12-10T18:25:36.720Z,6.83
2018-12-10T18:28:04.562Z,7.92
2018-12-10T18:30:32.188Z,5.95
2018-12-10T18:32:59.617Z,7.12
2018-12-10T18:35:27.008Z,7.35
2018-12-10T18:37:55.124Z,7.35
2018-12-10T18:40:22.970Z,6.45
2018-12-10T18:42:51.361Z,6.12
2018-12-10T18:45:18.881Z,6.00
2018-12-10T18:47:46.432Z,5.90
2018-12-10T18:50:13.942Z,5.85
2018-12-10T18:52:41.747Z,6.05
2018-12-10T18:55:09.268Z,5.90
2018-12-10T18:57:37.074Z,5.80
2018-12-10T19:00:09.005Z,6.35
2018-12-10T19:02:36.417Z,6.65
2018-12-10T19:05:04.342Z,6.85
2018-12-10T19:07:32.902Z,6.37
2018-12-10T19:10:00.450Z,7.87
2018-12-10T19:12:28.343Z,6.90
2018-12-10T19:14:56.548Z,5.28
2018-12-10T19:17:24.752Z,5.33
2018-12-10T19:19:52.968Z,4.22
2018-12-10T19:22:20.775Z,4.67
2018-12-10T19:24:48.469Z,4.35
2018-12-10T19:27:16.698Z,4.00
2018-12-10T19:29:44.391Z,4.45
2018-12-10T19:32:13.473Z,4.30
2018-12-10T19:34:41.836Z,3.87
2018-12-10T19:37:09.673Z,4.65
2018-12-10T19:39:38.385Z,4.15
2018-12-10T19:42:06.158Z,4.60
2018-12-10T19:44:34.652Z,5.95
2018-12-10T19:47:04.437Z,4.85
2018-12-10T19:49:32.664Z,4.35
2018-12-10T19:52:04.458Z,5.10
2018-12-10T19:54:35.608Z,5.30
2018-12-10T19:57:05.534Z,6.10
2018-12-10T19:59:34.511Z,5.47
2018-12-10T20:02:02.765Z,4.95
2018-12-10T20:04:31.405Z,4.92
2018-12-10T20:07:06.366Z,5.17
2018-12-10T20:09:34.901Z,4.87
2018-12-10T20:12:02.773Z,4.35
2018-12-10T20:14:31.461Z,5.22
2018-12-10T20:16:59.443Z,5.85
2018-12-10T20:19:27.278Z,4.83
2018-12-10T20:21:55.267Z,4.75
2018-12-10T20:24:22.776Z,5.33
2018-12-10T20:26:51.445Z,4.58
2018-12-10T20:29:19.089Z,6.47
2018-12-10T20:31:47.387Z,6.05
2018-12-10T20:34:15.030Z,5.55
2018-12-10T20:36:44.847Z,5.45
2018-12-10T20:39:12.426Z,5.10
2018-12-10T20:41:40.308Z,4.70
2018-12-10T20:44:09.965Z,3.75
2018-12-10T20:46:37.503Z,4.33
2018-12-10T20:49:05.042Z,5.42
2018-12-10T20:51:32.506Z,5.20
2018-12-10T20:53:59.953Z,5.35
2018-12-10T20:56:27.392Z,5.92
2018-12-10T20:58:55.508Z,6.60
2018-12-10T21:01:22.969Z,9.58
2018-12-10T21:03:50.503Z,9.10
2018-12-10T21:06:49.030Z,7.25
2018-12-10T21:09:16.509Z,6.28
2018-12-10T21:11:43.997Z,6.42
2018-12-10T21:14:11.379Z,5.10
2018-12-10T21:16:38.850Z,5.05
2018-12-10T21:19:06.260Z,5.83
2018-12-10T21:21:33.725Z,17.45
2018-12-10T21:24:01.217Z,6.80
2018-12-10T21:26:28.580Z,7.03
2018-12-10T21:28:55.994Z,8.35
2018-12-10T21:31:23.469Z,5.67
2018-12-10T21:33:50.943Z,5.33
2018-12-10T21:36:18.518Z,4.60
2018-12-10T21:38:45.981Z,4.90
2018-12-10T21:41:13.406Z,5.20
2018-12-10T21:43:40.956Z,5.58
2018-12-10T21:46:08.333Z,4.92
2018-12-10T21:48:35.776Z,5.60
2018-12-10T21:51:03.596Z,4.85
2018-12-10T21:53:31.023Z,4.80
2018-12-10T21:55:58.559Z,4.60
2018-12-10T21:58:25.963Z,5.30
2018-12-10T22:00:53.388Z,5.10
2018-12-10T22:03:21.000Z,5.40
2018-12-10T22:05:48.383Z,4.72
2018-12-10T22:08:15.897Z,4.40
2018-12-10T22:10:43.267Z,4.40
2018-12-10T22:13:10.619Z,4.45
2018-12-10T22:15:38.029Z,3.65
2018-12-10T22:18:05.401Z,4.80
2018-12-10T22:20:32.758Z,4.20
2018-12-10T22:23:00.254Z,4.28
2018-12-10T22:25:27.603Z,4.80
2018-12-10T22:27:55.007Z,4.12
2018-12-10T22:30:22.349Z,3.10
2018-12-10T22:32:49.717Z,3.85
2018-12-10T22:35:17.056Z,4.33
2018-12-10T22:37:44.406Z,3.80
2018-12-10T22:40:11.762Z,4.55
2018-12-10T22:42:39.116Z,4.80
2018-12-10T22:45:06.535Z,5.58
2018-12-10T22:47:33.933Z,4.35
2018-12-10T22:50:01.285Z,3.72
2018-12-10T22:52:28.643Z,4.65
2018-12-10T22:54:55.956Z,4.40
2018-12-10T22:57:23.275Z,5.15
2018-12-10T22:59:50.573Z,4.47
2018-12-10T23:02:17.947Z,5.08
2018-12-10T23:04:45.265Z,5.87
2018-12-10T23:07:12.590Z,5.95
2018-12-10T23:09:40.633Z,5.05
2018-12-10T23:12:07.959Z,5.80
2018-12-10T23:14:35.326Z,5.47
2018-12-10T23:17:02.932Z,5.53
2018-12-10T23:19:30.305Z,5.42
2018-12-10T23:21:57.622Z,4.78
2018-12-10T23:24:24.952Z,5.75
2018-12-10T23:26:52.310Z,5.45
2018-12-10T23:29:19.660Z,6.37
2018-12-10T23:31:47.004Z,5.42
2018-12-10T23:34:14.362Z,6.45
2018-12-10T23:36:41.710Z,5.33
2018-12-10T23:39:09.041Z,5.30
2018-12-10T23:41:36.398Z,4.72
2018-12-10T23:44:03.759Z,5.42
2018-12-10T23:46:31.204Z,5.50
2018-12-10T23:48:58.532Z,5.95
2018-12-10T23:51:25.906Z,5.95
2018-12-10T23:53:53.303Z,6.35
2018-12-10T23:56:20.676Z,6.55
2018-12-10T23:58:47.983Z,6.10
